createdAt,value
2023-05-16T00:01:47.408Z,73.11
2023-05-16T00:04:33.246Z,73.04
2023-05-16T00:07:19.183Z,72.80
2023-05-16T00:10:05.554Z,72.81
2023-05-16T00:12:51.609Z,72.90
2023-05-16T00:15:38.577Z,72.88
2023-05-16T00:18:23.852Z,72.58
2023-05-16T00:21:09.373Z,73.28
2023-05-16T00:23:54.760Z,72.85
2023-05-16T00:26:40.133Z,72.61
2023-05-16T00:29:26.332Z,73.00
2023-05-16T00:32:11.995Z,72.89
2023-05-16T00:34:58.683Z,73.22
2023-05-16T00:37:44.125Z,73.51
2023-05-16T00:40:29.565Z,73.66
2023-05-16T00:43:14.865Z,74.13
2023-05-16T00:46:01.122Z,74.21
2023-05-16T00:48:47.399Z,74.75
2023-05-16T00:51:32.888Z,74.72
2023-05-16T00:54:20.570Z,74.89
2023-05-16T00:57:06.878Z,74.60
2023-05-16T00:59:52.613Z,74.54
2023-05-16T01:02:38.512Z,74.20
2023-05-16T01:05:24.076Z,74.04
2023-05-16T01:08:10.286Z,74.23
2023-05-16T01:11:43.216Z,74.27
2023-05-16T01:14:44.680Z,74.38
2023-05-16T01:17:54.494Z,74.30
2023-05-16T01:20:52.143Z,74.18
2023-05-16T01:23:59.248Z,74.23
2023-05-16T01:26:46.769Z,74.14
2023-05-16T01:29:32.470Z,74.19
2023-05-16T01:32:18.222Z,74.86
2023-05-16T01:35:04.552Z,75.32
2023-05-16T01:37:59.753Z,75.32
2023-05-16T01:40:59.690Z,75.54
2023-05-16T01:43:51.377Z,75.66
2023-05-16T01:46:40.758Z,75.29
2023-05-16T01:49:51.232Z,75.01
2023-05-16T01:52:49.295Z,75.25
2023-05-16T01:55:47.916Z,75.07
2023-05-16T01:58:36.828Z,75.29
2023-05-16T02:01:23.074Z,75.11
2023-05-16T02:04:09.386Z,75.58
2023-05-16T02:06:55.571Z,75.49
2023-05-16T02:09:41.348Z,74.97
2023-05-16T02:12:27.079Z,75.20
2023-05-16T02:15:14.841Z,75.46
2023-05-16T02:18:01.132Z,75.20
2023-05-16T02:20:46.360Z,75.48
2023-05-16T02:23:32.008Z,75.43
2023-05-16T02:26:18.737Z,75.87
2023-05-16T02:29:04.063Z,75.89
2023-05-16T02:31:49.472Z,76.14
2023-05-16T02:34:34.715Z,75.81
2023-05-16T02:37:20.772Z,76.72
2023-05-16T02:40:09.298Z,76.42
2023-05-16T02:42:55.117Z,76.42
2023-05-16T02:45:40.928Z,76.66
2023-05-16T02:48:26.891Z,75.69
2023-05-16T02:51:12.356Z,76.35
2023-05-16T02:53:59.608Z,76.26
2023-05-16T02:56:45.123Z,76.03
2023-05-16T02:59:30.475Z,76.12
2023-05-16T03:02:15.870Z,76.07
2023-05-16T03:05:01.144Z,75.86
2023-05-16T03:07:46.719Z,75.80
2023-05-16T03:10:32.067Z,75.76
2023-05-16T03:13:17.490Z,75.64
2023-05-16T03:16:03.419Z,75.41
2023-05-16T03:18:48.816Z,75.75
2023-05-16T03:21:34.229Z,75.61
2023-05-16T03:24:21.777Z,75.79
2023-05-16T03:27:08.084Z,75.91
2023-05-16T03:29:53.634Z,76.06
2023-05-16T03:32:38.992Z,75.83
2023-05-16T03:35:24.745Z,75.97
2023-05-16T03:38:10.296Z,76.17
2023-05-16T03:40:55.885Z,75.91
2023-05-16T03:43:42.715Z,75.77
2023-05-16T03:46:28.358Z,75.68
2023-05-16T03:49:13.603Z,75.48
2023-05-16T03:51:59.004Z,75.64
2023-05-16T03:54:44.553Z,75.71
2023-05-16T03:58:03.821Z,75.93
2023-05-16T04:00:52.146Z,76.12
2023-05-16T04:03:38.533Z,76.28
2023-05-16T04:06:24.023Z,76.42
2023-05-16T04:09:09.650Z,75.88
2023-05-16T04:11:59.136Z,76.02
2023-05-16T04:14:44.717Z,76.03
2023-05-16T04:17:30.163Z,76.23
2023-05-16T04:20:15.612Z,76.16
2023-05-16T04:23:01.072Z,76.41
2023-05-16T04:25:46.665Z,76.02
2023-05-16T04:28:32.609Z,76.29
2023-05-16T04:31:18.255Z,76.36
2023-05-16T04:34:03.846Z,76.17
2023-05-16T04:36:49.458Z,76.46
2023-05-16T04:39:36.529Z,76.82
2023-05-16T04:42:22.242Z,76.62
2023-05-16T04:45:11.392Z,76.43
2023-05-16T04:47:56.851Z,75.70
2023-05-16T04:50:44.371Z,75.65
2023-05-16T04:53:29.980Z,75.11
2023-05-16T04:56:15.723Z,75.39
2023-05-16T04:59:02.430Z,73.26
2023-05-16T05:01:48.091Z,73.26
2023-05-16T05:04:36.860Z,72.48
2023-05-16T05:07:23.595Z,72.14
2023-05-16T05:10:09.618Z,72.34
2023-05-16T05:12:55.057Z,71.84
2023-05-16T05:15:40.656Z,71.52
2023-05-16T05:18:26.841Z,71.35
2023-05-16T05:21:12.662Z,71.24
2023-05-16T05:23:59.065Z,71.31
2023-05-16T05:26:44.881Z,73.04
2023-05-16T05:29:30.916Z,72.61
2023-05-16T05:32:16.638Z,71.80
2023-05-16T05:35:03.219Z,70.88
2023-05-16T05:37:51.110Z,70.62
2023-05-16T05:40:40.184Z,70.58
2023-05-16T05:43:28.271Z,69.06
2023-05-16T05:46:13.914Z,68.36
2023-05-16T05:48:59.906Z,67.62
2023-05-16T05:51:45.417Z,67.38
2023-05-16T05:54:30.799Z,67.15
2023-05-16T05:57:16.405Z,65.56
2023-05-16T06:00:01.676Z,65.87
2023-05-16T06:02:53.172Z,64.71
2023-05-16T06:05:39.309Z,64.92
2023-05-16T06:08:24.505Z,63.59
2023-05-16T06:11:10.131Z,62.15
2023-05-16T06:13:55.574Z,63.29
2023-05-16T06:16:40.943Z,64.11
2023-05-16T06:19:26.532Z,63.77
2023-05-16T06:22:12.216Z,64.80
2023-05-16T06:24:57.725Z,65.35
2023-05-16T06:27:43.180Z,64.94
2023-05-16T06:30:28.485Z,65.05
2023-05-16T06:33:15.282Z,64.95
2023-05-16T06:36:00.985Z,64.85
2023-05-16T06:38:46.594Z,64.92
2023-05-16T06:41:36.629Z,65.33
2023-05-16T06:44:23.848Z,63.56
2023-05-16T06:47:09.595Z,63.94
2023-05-16T06:49:55.374Z,63.57
2023-05-16T06:52:41.881Z,64.59
2023-05-16T06:55:27.658Z,65.38
2023-05-16T06:58:13.352Z,64.47
2023-05-16T07:00:58.720Z,63.57
2023-05-16T07:03:44.137Z,61.31
2023-05-16T07:06:29.813Z,62.34
2023-05-16T07:09:15.590Z,62.65
2023-05-16T07:12:01.364Z,63.94
2023-05-16T07:14:46.963Z,63.44
2023-05-16T07:17:32.624Z,64.23
2023-05-16T07:20:18.069Z,64.09
2023-05-16T07:23:03.300Z,64.56
2023-05-16T07:25:48.921Z,64.41
2023-05-16T07:28:34.620Z,64.43
2023-05-16T07:31:20.296Z,64.55
2023-05-16T07:34:06.554Z,64.98
2023-05-16T07:36:52.303Z,63.98
2023-05-16T07:39:37.961Z,65.04
2023-05-16T07:42:23.650Z,64.10
2023-05-16T07:45:09.587Z,63.88
2023-05-16T07:47:55.322Z,64.67
2023-05-16T07:50:40.663Z,63.58
2023-05-16T07:53:26.110Z,63.36
2023-05-16T07:56:11.455Z,64.20
2023-05-16T07:58:56.910Z,64.17
2023-05-16T08:01:42.629Z,64.30
2023-05-16T08:04:28.467Z,63.64
2023-05-16T08:07:14.695Z,64.06
2023-05-16T08:10:00.274Z,63.97
2023-05-16T08:12:46.401Z,63.87
2023-05-16T08:15:32.075Z,64.31
2023-05-16T08:18:18.759Z,64.23
2023-05-16T08:21:05.688Z,63.47
2023-05-16T08:23:51.683Z,63.87
2023-05-16T08:26:37.487Z,63.03
2023-05-16T08:29:23.128Z,63.19
2023-05-16T08:32:10.147Z,63.54
2023-05-16T08:34:55.965Z,62.96
2023-05-16T08:37:41.643Z,60.67
2023-05-16T08:40:28.252Z,61.91
2023-05-16T08:43:14.077Z,60.66
2023-05-16T08:45:59.760Z,61.34
2023-05-16T08:48:47.163Z,60.63
2023-05-16T08:51:36.596Z,61.20
2023-05-16T08:54:22.747Z,61.20
2023-05-16T08:57:09.465Z,59.62
2023-05-16T08:59:59.230Z,59.85
2023-05-16T09:02:45.869Z,59.92
2023-05-16T09:05:32.376Z,59.45
2023-05-16T09:08:18.034Z,59.14
2023-05-16T09:11:03.888Z,59.69
2023-05-16T09:13:49.659Z,59.05
2023-05-16T09:16:34.889Z,59.38
2023-05-16T09:19:23.247Z,60.44
2023-05-16T09:22:16.380Z,58.62
2023-05-16T09:25:01.727Z,59.20
2023-05-16T09:28:10.877Z,57.59
2023-05-16T09:30:59.301Z,57.61
2023-05-16T09:33:44.886Z,58.03
2023-05-16T09:36:32.221Z,58.22
2023-05-16T09:39:17.706Z,57.90
2023-05-16T09:42:03.923Z,57.96
2023-05-16T09:44:56.190Z,58.60
2023-05-16T09:47:46.668Z,58.72
2023-05-16T09:50:36.828Z,58.63
2023-05-16T09:53:33.613Z,58.57
2023-05-16T09:56:19.693Z,57.01
2023-05-16T09:59:11.372Z,56.26
2023-05-16T10:02:00.953Z,56.91
2023-05-16T10:04:46.569Z,57.04
2023-05-16T10:07:34.088Z,56.33
2023-05-16T10:10:20.518Z,57.08
2023-05-16T10:13:08.410Z,57.02
2023-05-16T10:15:56.589Z,56.39
2023-05-16T10:18:43.500Z,56.53
2023-05-16T10:21:29.970Z,56.61
2023-05-16T10:24:22.326Z,55.85
2023-05-16T10:27:09.498Z,56.41
2023-05-16T10:29:55.671Z,56.64
2023-05-16T10:32:42.986Z,56.78
2023-05-16T10:35:29.001Z,56.75
2023-05-16T10:38:17.860Z,56.35
2023-05-16T10:41:03.769Z,56.42
2023-05-16T10:43:59.105Z,56.80
2023-05-16T10:46:47.276Z,56.81
2023-05-16T10:49:32.872Z,56.84
2023-05-16T10:52:18.466Z,56.37
2023-05-16T10:55:04.900Z,55.72
2023-05-16T10:57:50.633Z,55.55
2023-05-16T11:00:36.238Z,56.76
2023-05-16T11:03:28.711Z,56.90
2023-05-16T11:06:22.308Z,56.44
2023-05-16T11:09:13.333Z,56.00
2023-05-16T11:12:00.299Z,56.95
2023-05-16T11:14:51.800Z,56.25
2023-05-16T11:17:42.818Z,56.23
2023-05-16T11:20:35.612Z,57.06
2023-05-16T11:23:25.984Z,56.60
2023-05-16T11:26:11.820Z,56.70
2023-05-16T11:28:59.466Z,56.47
2023-05-16T11:31:44.921Z,56.46
2023-05-16T11:34:31.310Z,56.48
2023-05-16T11:37:17.849Z,57.00
2023-05-16T11:40:04.508Z,56.52
2023-05-16T11:42:50.306Z,57.74
2023-05-16T11:45:36.072Z,56.78
2023-05-16T11:48:35.743Z,56.21
2023-05-16T11:51:23.157Z,56.55
2023-05-16T11:54:10.635Z,56.06
2023-05-16T11:56:56.679Z,56.75
2023-05-16T11:59:42.324Z,57.80
2023-05-16T12:02:30.384Z,56.54
2023-05-16T12:05:20.815Z,56.69
2023-05-16T12:08:06.769Z,56.42
2023-05-16T12:10:53.675Z,56.75
2023-05-16T12:13:39.102Z,57.19
2023-05-16T12:16:24.827Z,56.68
2023-05-16T12:19:10.809Z,56.15
2023-05-16T12:21:56.361Z,56.51
2023-05-16T12:24:41.767Z,57.18
2023-05-16T12:27:27.956Z,56.75
2023-05-16T12:30:13.993Z,56.96
2023-05-16T12:33:06.989Z,56.72
2023-05-16T12:35:55.356Z,56.53
2023-05-16T12:38:40.596Z,56.15
2023-05-16T12:41:26.302Z,56.85
2023-05-16T12:44:19.510Z,56.76
2023-05-16T12:47:12.395Z,56.38
2023-05-16T12:49:57.912Z,56.27
2023-05-16T12:52:54.341Z,56.93
2023-05-16T12:55:41.137Z,56.66
2023-05-16T12:58:27.523Z,56.47
2023-05-16T13:01:15.739Z,56.45
2023-05-16T13:04:01.469Z,56.70
2023-05-16T13:06:58.259Z,56.25
2023-05-16T13:09:44.272Z,56.49
2023-05-16T13:12:30.078Z,56.61
2023-05-16T13:15:15.845Z,57.12
2023-05-16T13:18:01.195Z,56.74
2023-05-16T13:20:46.570Z,56.79
2023-05-16T13:23:33.083Z,57.03
2023-05-16T13:26:18.398Z,56.48
2023-05-16T13:29:03.858Z,57.02
2023-05-16T13:31:49.331Z,56.60
2023-05-16T13:34:35.372Z,56.62
2023-05-16T13:37:21.349Z,56.85
2023-05-16T13:40:10.493Z,56.58
2023-05-16T13:42:57.068Z,56.98
2023-05-16T13:45:43.356Z,56.65
2023-05-16T13:48:28.947Z,56.19
2023-05-16T13:51:14.873Z,56.10
2023-05-16T13:54:00.436Z,55.82
2023-05-16T13:56:45.937Z,55.30
2023-05-16T13:59:56.782Z,55.94
2023-05-16T14:02:36.953Z,56.14
2023-05-16T14:05:22.679Z,55.76
2023-05-16T14:08:08.306Z,56.04
2023-05-16T14:10:53.857Z,56.08
2023-05-16T14:13:40.403Z,55.73
2023-05-16T14:16:27.245Z,55.97
2023-05-16T14:19:13.587Z,55.99
2023-05-16T14:22:00.174Z,55.71
2023-05-16T14:24:45.783Z,55.43
2023-05-16T14:27:31.270Z,55.48
2023-05-16T14:30:17.354Z,55.56
2023-05-16T14:33:03.560Z,54.83
2023-05-16T14:35:50.218Z,54.74
2023-05-16T14:38:37.456Z,55.28
2023-05-16T14:41:23.015Z,55.46
2023-05-16T14:44:08.558Z,55.62
2023-05-16T14:46:54.026Z,55.42
2023-05-16T14:49:40.478Z,55.59
2023-05-16T14:52:26.521Z,55.07
2023-05-16T14:55:12.538Z,55.47
2023-05-16T14:58:00.108Z,55.64
2023-05-16T15:00:46.260Z,55.97
2023-05-16T15:03:43.364Z,55.76
2023-05-16T15:06:37.323Z,56.21
2023-05-16T15:09:23.295Z,56.35
2023-05-16T15:12:08.932Z,56.42
2023-05-16T15:14:54.462Z,57.35
2023-05-16T15:17:41.911Z,57.28
2023-05-16T15:20:28.099Z,57.71
2023-05-16T15:23:14.002Z,57.63
2023-05-16T15:25:59.648Z,57.78
2023-05-16T15:28:45.128Z,58.03
2023-05-16T15:31:32.196Z,58.27
2023-05-16T15:34:17.999Z,58.56
2023-05-16T15:37:03.908Z,59.06
2023-05-16T15:39:49.408Z,59.26
2023-05-16T15:42:35.444Z,59.19
2023-05-16T15:45:21.094Z,59.29
2023-05-16T15:48:07.073Z,59.29
2023-05-16T15:50:53.078Z,59.41
2023-05-16T15:53:38.599Z,60.09
2023-05-16T15:56:24.155Z,60.03
2023-05-16T15:59:09.586Z,60.03
2023-05-16T16:01:55.107Z,60.54
2023-05-16T16:04:41.379Z,60.62
2023-05-16T16:07:26.896Z,60.98
2023-05-16T16:10:12.358Z,61.59
2023-05-16T16:13:05.016Z,61.96
2023-05-16T16:15:51.264Z,61.90
2023-05-16T16:18:36.900Z,62.10
2023-05-16T16:21:23.749Z,61.88
2023-05-16T16:24:09.063Z,61.80
2023-05-16T16:26:54.794Z,61.81
2023-05-16T16:29:40.454Z,62.15
2023-05-16T16:32:26.274Z,62.36
2023-05-16T16:35:15.313Z,62.48
2023-05-16T16:38:06.328Z,62.20
2023-05-16T16:40:53.091Z,62.32
2023-05-16T16:43:40.112Z,62.47
2023-05-16T16:46:25.760Z,62.58
2023-05-16T16:49:12.025Z,62.80
2023-05-16T16:51:58.180Z,63.16
2023-05-16T16:54:43.777Z,63.24
2023-05-16T16:57:29.139Z,63.08
2023-05-16T17:00:15.475Z,63.18
2023-05-16T17:03:03.890Z,62.82
2023-05-16T17:05:49.545Z,62.86
2023-05-16T17:08:34.961Z,62.86
2023-05-16T17:11:23.447Z,62.91
2023-05-16T17:14:10.709Z,63.05
2023-05-16T17:16:56.794Z,63.19
2023-05-16T17:19:42.826Z,63.39
2023-05-16T17:22:28.410Z,63.63
2023-05-16T17:25:13.646Z,63.92
2023-05-16T17:27:59.337Z,63.92
2023-05-16T17:30:45.039Z,65.70
2023-05-16T17:33:30.602Z,66.76
2023-05-16T17:36:16.127Z,67.19
2023-05-16T17:39:01.791Z,67.42
2023-05-16T17:41:47.393Z,67.02
2023-05-16T17:44:33.425Z,66.57
2023-05-16T17:47:19.744Z,66.89
2023-05-16T17:50:08.771Z,67.54
2023-05-16T17:52:55.403Z,68.28
2023-05-16T17:55:41.138Z,69.31
2023-05-16T17:58:27.437Z,70.37
2023-05-16T18:01:13.686Z,70.36
2023-05-16T18:03:59.777Z,71.15
2023-05-16T18:06:46.195Z,72.11
2023-05-16T18:09:31.698Z,72.87
2023-05-16T18:12:17.320Z,73.52
2023-05-16T18:15:03.927Z,73.99
2023-05-16T18:17:49.615Z,74.41
2023-05-16T18:20:35.573Z,73.75
2023-05-16T18:23:21.459Z,73.59
2023-05-16T18:26:07.280Z,74.53
2023-05-16T18:28:52.840Z,74.59
2023-05-16T18:31:41.280Z,74.90
2023-05-16T18:34:27.082Z,75.18
2023-05-16T18:37:13.946Z,75.07
2023-05-16T18:39:59.629Z,74.96
2023-05-16T18:42:44.879Z,75.31
2023-05-16T18:45:30.756Z,74.96
2023-05-16T18:48:16.606Z,75.59
2023-05-16T18:51:02.203Z,75.70
2023-05-16T18:53:48.491Z,75.88
2023-05-16T18:56:33.987Z,75.74
2023-05-16T18:59:20.031Z,75.72
2023-05-16T19:02:05.752Z,75.95
2023-05-16T19:04:52.357Z,76.47
2023-05-16T19:07:38.526Z,76.51
2023-05-16T19:10:25.367Z,76.71
2023-05-16T19:13:10.729Z,75.61
2023-05-16T19:15:56.044Z,75.65
2023-05-16T19:18:42.416Z,75.16
2023-05-16T19:21:28.301Z,75.32
2023-05-16T19:24:13.628Z,74.94
2023-05-16T19:26:59.161Z,75.26
2023-05-16T19:29:45.076Z,76.63
2023-05-16T19:32:30.423Z,76.04
2023-05-16T19:35:16.233Z,75.44
2023-05-16T19:38:02.681Z,74.74
2023-05-16T19:40:48.015Z,74.84
2023-05-16T19:43:34.353Z,74.63
2023-05-16T19:46:19.748Z,74.93
2023-05-16T19:49:07.271Z,74.88
2023-05-16T19:51:52.538Z,75.42
2023-05-16T19:54:40.993Z,74.98
2023-05-16T19:57:26.340Z,75.01
2023-05-16T20:00:13.122Z,75.00
2023-05-16T20:02:58.510Z,74.97
2023-05-16T20:05:44.380Z,74.81
2023-05-16T20:08:30.640Z,74.82
2023-05-16T20:11:16.129Z,74.90
2023-05-16T20:14:02.020Z,75.00
2023-05-16T20:16:47.518Z,75.11
2023-05-16T20:19:33.365Z,75.24
2023-05-16T20:22:22.386Z,74.89
2023-05-16T20:25:10.529Z,74.52
2023-05-16T20:27:56.513Z,75.04
2023-05-16T20:30:42.193Z,74.83
2023-05-16T20:33:30.713Z,75.11
2023-05-16T20:36:16.514Z,75.89
2023-05-16T20:39:01.988Z,76.21
2023-05-16T20:41:47.346Z,75.65
2023-05-16T20:44:34.000Z,75.74
2023-05-16T20:47:19.865Z,75.41
2023-05-16T20:50:06.224Z,75.63
2023-05-16T20:52:52.014Z,75.65
2023-05-16T20:55:37.456Z,75.31
2023-05-16T20:58:22.957Z,75.46
2023-05-16T21:01:09.420Z,75.11
2023-05-16T21:03:55.064Z,74.99
2023-05-16T21:06:40.384Z,74.04
2023-05-16T21:09:25.960Z,73.70
2023-05-16T21:12:11.607Z,73.75
2023-05-16T21:14:57.508Z,73.46
2023-05-16T21:17:43.722Z,73.59
2023-05-16T21:20:30.121Z,73.54
2023-05-16T21:23:15.897Z,73.57
2023-05-16T21:26:01.223Z,73.57
2023-05-16T21:31:36.640Z,73.29
2023-05-16T21:34:21.966Z,73.35
2023-05-16T21:37:08.466Z,73.50
2023-05-16T21:39:55.001Z,73.29
2023-05-16T21:42:40.722Z,73.23
2023-05-16T21:45:26.391Z,73.55
2023-05-16T21:48:12.636Z,73.16
2023-05-16T21:50:57.850Z,73.68
2023-05-16T21:53:43.329Z,73.54
2023-05-16T21:56:29.602Z,73.65
2023-05-16T21:59:15.464Z,73.19
2023-05-16T22:02:00.879Z,73.36
2023-05-16T22:04:46.552Z,73.25
2023-05-16T22:07:32.115Z,73.64
2023-05-16T22:10:18.599Z,73.59
2023-05-16T22:13:04.321Z,74.06
2023-05-16T22:16:03.246Z,73.95
2023-05-16T22:18:50.134Z,74.46
2023-05-16T22:21:36.092Z,74.55
2023-05-16T22:24:21.568Z,74.08
2023-05-16T22:27:06.999Z,74.17
2023-05-16T22:29:52.318Z,74.34
2023-05-16T22:32:37.744Z,74.21
2023-05-16T22:35:23.761Z,74.37
2023-05-16T22:38:09.600Z,74.01
2023-05-16T22:40:55.496Z,73.65
2023-05-16T22:43:41.554Z,73.24
2023-05-16T22:46:27.050Z,73.67
2023-05-16T22:49:12.481Z,73.47
2023-05-16T22:51:57.804Z,73.79
2023-05-16T22:54:43.161Z,73.22
2023-05-16T22:57:28.682Z,73.15
2023-05-16T23:00:14.279Z,72.99
2023-05-16T23:03:00.035Z,73.24
2023-05-16T23:05:45.706Z,73.15
2023-05-16T23:08:31.421Z,73.32
2023-05-16T23:11:16.811Z,73.12
2023-05-16T23:14:02.213Z,73.56
2023-05-16T23:16:49.130Z,72.94
2023-05-16T23:19:34.534Z,73.07
2023-05-16T23:22:20.416Z,72.56
2023-05-16T23:25:06.563Z,73.03
2023-05-16T23:27:52.115Z,73.61
2023-05-16T23:30:37.956Z,73.56
2023-05-16T23:33:23.458Z,73.40
2023-05-16T23:36:09.294Z,73.34
2023-05-16T23:38:54.860Z,73.20
2023-05-16T23:41:40.432Z,73.43
2023-05-16T23:44:25.858Z,73.47
2023-05-16T23:47:11.765Z,73.15
2023-05-16T23:49:57.119Z,72.95
2023-05-16T23:52:42.959Z,72.42
2023-05-16T23:55:28.651Z,72.41
2023-05-16T23:58:14.372Z,72.52
